sensor_id;sensor_type;location;lat;lon;timestamp;noise_LAeq;noise_LA_min;noise_LA_max;noise_LA01;noise_LA95
48148;Laerm;29352;48.708;9.290;2023-08-31T00:00:30;54.30;51.82;65.72;;
48148;Laerm;29352;48.708;9.290;2023-08-31T00:02:57;55.49;51.89;66.62;;
48148;Laerm;29352;48.708;9.290;2023-08-31T00:05:22;55.63;51.82;68.60;;
48148;Laerm;29352;48.708;9.290;2023-08-31T00:07:50;55.65;51.75;69.42;;
48148;Laerm;29352;48.708;9.290;2023-08-31T00:10:16;55.19;52.29;72.68;;
48148;Laerm;29352;48.708;9.290;2023-08-31T00:12:42;55.68;52.22;69.09;;
48148;Laerm;29352;48.708;9.290;2023-08-31T00:15:09;56.63;52.59;74.40;;
48148;Laerm;29352;48.708;9.290;2023-08-31T00:17:35;56.57;52.29;67.86;;
48148;Laerm;29352;48.708;9.290;2023-08-31T00:20:01;56.00;52.79;66.55;;
48148;Laerm;29352;48.708;9.290;2023-08-31T00:22:27;56.55;52.59;71.02;;
48148;Laerm;29352;48.708;9.290;2023-08-31T00:24:54;56.18;52.47;71.81;;
48148;Laerm;29352;48.708;9.290;2023-08-31T00:27:19;55.28;52.47;69.10;;
48148;Laerm;29352;48.708;9.290;2023-08-31T00:29:46;55.76;52.82;71.90;;
48148;Laerm;29352;48.708;9.290;2023-08-31T00:32:16;57.08;52.82;70.83;;
48148;Laerm;29352;48.708;9.290;2023-08-31T00:34:42;57.61;52.88;73.74;;
48148;Laerm;29352;48.708;9.290;2023-08-31T00:37:07;57.24;53.04;71.21;;
48148;Laerm;29352;48.708;9.290;2023-08-31T00:39:33;56.13;52.59;71.06;;
48148;Laerm;29352;48.708;9.290;2023-08-31T00:41:59;55.56;52.90;64.71;;
48148;Laerm;29352;48.708;9.290;2023-08-31T00:44:26;56.79;52.47;68.75;;
48148;Laerm;29352;48.708;9.290;2023-08-31T00:46:52;56.75;52.93;66.85;;
48148;Laerm;29352;48.708;9.290;2023-08-31T00:49:18;56.40;52.76;69.78;;
48148;Laerm;29352;48.708;9.290;2023-08-31T00:51:45;57.89;52.76;70.03;;
48148;Laerm;29352;48.708;9.290;2023-08-31T00:54:17;57.58;53.24;71.90;;
48148;Laerm;29352;48.708;9.290;2023-08-31T00:56:42;58.02;52.76;74.54;;
48148;Laerm;29352;48.708;9.290;2023-08-31T00:59:08;57.34;52.76;71.98;;
48148;Laerm;29352;48.708;9.290;2023-08-31T01:01:45;55.74;52.82;68.96;;
48148;Laerm;29352;48.708;9.290;2023-08-31T01:04:33;55.96;53.19;63.55;;
48148;Laerm;29352;48.708;9.290;2023-08-31T01:10:26;56.25;52.76;72.31;;
48148;Laerm;29352;48.708;9.290;2023-08-31T01:13:10;57.70;53.14;73.86;;
48148;Laerm;29352;48.708;9.290;2023-08-31T01:15:44;56.94;52.93;68.84;;
48148;Laerm;29352;48.708;9.290;2023-08-31T01:18:17;56.15;52.71;67.08;;
48148;Laerm;29352;48.708;9.290;2023-08-31T01:20:57;57.02;52.65;72.51;;
48148;Laerm;29352;48.708;9.290;2023-08-31T01:26:15;57.11;52.59;76.49;;
48148;Laerm;29352;48.708;9.290;2023-08-31T01:28:40;54.74;51.82;67.35;;
48148;Laerm;29352;48.708;9.290;2023-08-31T01:31:06;56.99;52.35;74.47;;
48148;Laerm;29352;48.708;9.290;2023-08-31T01:33:31;57.09;52.71;73.68;;
48148;Laerm;29352;48.708;9.290;2023-08-31T01:36:04;58.34;52.71;70.65;;
48148;Laerm;29352;48.708;9.290;2023-08-31T01:38:38;56.56;52.71;70.36;;
48148;Laerm;29352;48.708;9.290;2023-08-31T01:41:12;56.51;52.82;74.64;;
48148;Laerm;29352;48.708;9.290;2023-08-31T01:43:41;56.50;52.76;70.36;;
48148;Laerm;29352;48.708;9.290;2023-08-31T01:46:09;56.64;52.53;71.48;;
48148;Laerm;29352;48.708;9.290;2023-08-31T01:48:39;55.44;52.59;68.29;;
48148;Laerm;29352;48.708;9.290;2023-08-31T01:51:10;55.64;52.41;70.83;;
48148;Laerm;29352;48.708;9.290;2023-08-31T01:53:35;54.85;52.41;67.53;;
48148;Laerm;29352;48.708;9.290;2023-08-31T01:56:02;55.38;52.65;69.11;;
48148;Laerm;29352;48.708;9.290;2023-08-31T01:58:27;55.78;52.35;69.57;;
48148;Laerm;29352;48.708;9.290;2023-08-31T02:00:53;54.40;52.41;64.22;;
48148;Laerm;29352;48.708;9.290;2023-08-31T02:03:18;54.08;52.16;63.31;;
48148;Laerm;29352;48.708;9.290;2023-08-31T02:05:43;56.08;52.16;71.41;;
48148;Laerm;29352;48.708;9.290;2023-08-31T02:08:09;54.49;51.89;68.93;;
48148;Laerm;29352;48.708;9.290;2023-08-31T02:10:34;53.39;51.96;60.53;;
48148;Laerm;29352;48.708;9.290;2023-08-31T02:13:00;54.24;52.03;67.65;;
48148;Laerm;29352;48.708;9.290;2023-08-31T02:15:25;54.39;51.96;67.19;;
48148;Laerm;29352;48.708;9.290;2023-08-31T02:17:51;54.86;51.89;67.40;;
48148;Laerm;29352;48.708;9.290;2023-08-31T02:20:16;54.62;52.03;69.28;;
48148;Laerm;29352;48.708;9.290;2023-08-31T02:22:42;54.47;51.82;64.32;;
48148;Laerm;29352;48.708;9.290;2023-08-31T02:25:08;53.61;51.96;67.13;;
48148;Laerm;29352;48.708;9.290;2023-08-31T02:27:33;53.48;51.75;65.12;;
48148;Laerm;29352;48.708;9.290;2023-08-31T02:29:58;53.25;51.82;62.46;;
48148;Laerm;29352;48.708;9.290;2023-08-31T02:32:24;53.25;51.89;59.12;;
48148;Laerm;29352;48.708;9.290;2023-08-31T02:34:50;53.60;51.75;69.67;;
48148;Laerm;29352;48.708;9.290;2023-08-31T02:37:15;53.30;51.68;55.66;;
48148;Laerm;29352;48.708;9.290;2023-08-31T02:39:41;53.28;51.75;57.79;;
48148;Laerm;29352;48.708;9.290;2023-08-31T02:42:07;53.39;51.89;64.87;;
48148;Laerm;29352;48.708;9.290;2023-08-31T02:44:33;53.22;51.89;56.84;;
48148;Laerm;29352;48.708;9.290;2023-08-31T02:46:58;53.29;51.89;59.39;;
48148;Laerm;29352;48.708;9.290;2023-08-31T02:49:24;53.37;51.96;60.49;;
48148;Laerm;29352;48.708;9.290;2023-08-31T02:51:49;53.15;51.96;58.28;;
48148;Laerm;29352;48.708;9.290;2023-08-31T02:54:15;53.23;51.82;55.30;;
48148;Laerm;29352;48.708;9.290;2023-08-31T02:56:41;54.06;52.09;66.03;;
48148;Laerm;29352;48.708;9.290;2023-08-31T02:59:06;54.41;51.68;69.38;;
48148;Laerm;29352;48.708;9.290;2023-08-31T03:01:32;54.23;52.03;65.77;;
48148;Laerm;29352;48.708;9.290;2023-08-31T03:03:57;53.85;51.75;69.10;;
48148;Laerm;29352;48.708;9.290;2023-08-31T03:06:23;53.45;52.09;60.61;;
48148;Laerm;29352;48.708;9.290;2023-08-31T03:08:48;53.42;52.00;61.45;;
48148;Laerm;29352;48.708;9.290;2023-08-31T03:11:13;54.10;51.96;66.05;;
48148;Laerm;29352;48.708;9.290;2023-08-31T03:13:40;55.45;52.53;67.58;;
48148;Laerm;29352;48.708;9.290;2023-08-31T03:16:06;55.28;52.22;65.83;;
48148;Laerm;29352;48.708;9.290;2023-08-31T03:18:31;54.88;52.76;66.54;;
48148;Laerm;29352;48.708;9.290;2023-08-31T03:20:57;54.83;52.35;66.03;;
48148;Laerm;29352;48.708;9.290;2023-08-31T03:23:22;54.31;52.22;66.84;;
48148;Laerm;29352;48.708;9.290;2023-08-31T03:25:47;53.60;52.16;59.66;;
48148;Laerm;29352;48.708;9.290;2023-08-31T03:28:13;53.62;52.22;63.72;;
48148;Laerm;29352;48.708;9.290;2023-08-31T03:30:38;53.30;51.82;57.54;;
48148;Laerm;29352;48.708;9.290;2023-08-31T03:33:04;53.74;52.22;57.77;;
48148;Laerm;29352;48.708;9.290;2023-08-31T03:35:32;53.41;52.09;58.16;;
48148;Laerm;29352;48.708;9.290;2023-08-31T03:37:58;53.68;51.96;62.31;;
48148;Laerm;29352;48.708;9.290;2023-08-31T03:40:23;54.81;51.96;66.85;;
48148;Laerm;29352;48.708;9.290;2023-08-31T03:42:52;53.82;52.22;66.42;;
48148;Laerm;29352;48.708;9.290;2023-08-31T03:45:19;53.78;51.89;66.52;;
48148;Laerm;29352;48.708;9.290;2023-08-31T03:47:45;53.39;51.96;60.56;;
48148;Laerm;29352;48.708;9.290;2023-08-31T03:50:10;59.32;51.68;93.59;;
48148;Laerm;29352;48.708;9.290;2023-08-31T03:52:36;53.07;51.61;60.78;;
48148;Laerm;29352;48.708;9.290;2023-08-31T03:55:01;53.32;51.38;57.63;;
48148;Laerm;29352;48.708;9.290;2023-08-31T03:57:27;53.52;51.68;62.33;;
48148;Laerm;29352;48.708;9.290;2023-08-31T03:59:52;53.51;51.68;59.91;;
48148;Laerm;29352;48.708;9.290;2023-08-31T04:02:17;53.45;51.96;63.04;;
48148;Laerm;29352;48.708;9.290;2023-08-31T04:04:43;53.91;51.82;63.69;;
48148;Laerm;29352;48.708;9.290;2023-08-31T04:07:08;53.80;52.03;65.50;;
48148;Laerm;29352;48.708;9.290;2023-08-31T04:09:34;53.91;51.96;67.60;;
48148;Laerm;29352;48.708;9.290;2023-08-31T04:11:59;54.39;52.29;65.33;;
48148;Laerm;29352;48.708;9.290;2023-08-31T04:14:26;54.13;52.22;62.42;;
48148;Laerm;29352;48.708;9.290;2023-08-31T04:16:54;54.03;51.96;63.03;;
48148;Laerm;29352;48.708;9.290;2023-08-31T04:19:19;54.22;52.16;68.17;;
48148;Laerm;29352;48.708;9.290;2023-08-31T04:21:45;54.33;52.09;64.18;;
48148;Laerm;29352;48.708;9.290;2023-08-31T04:24:10;53.90;52.16;64.93;;
48148;Laerm;29352;48.708;9.290;2023-08-31T04:26:36;54.02;52.09;67.29;;
48148;Laerm;29352;48.708;9.290;2023-08-31T04:29:03;54.36;52.35;66.19;;
48148;Laerm;29352;48.708;9.290;2023-08-31T04:31:31;54.99;52.22;64.42;;
48148;Laerm;29352;48.708;9.290;2023-08-31T04:33:57;53.42;51.68;65.45;;
48148;Laerm;29352;48.708;9.290;2023-08-31T04:36:22;53.29;51.96;61.70;;
48148;Laerm;29352;48.708;9.290;2023-08-31T04:38:49;53.32;51.96;60.11;;
48148;Laerm;29352;48.708;9.290;2023-08-31T04:41:15;53.64;51.96;64.09;;
48148;Laerm;29352;48.708;9.290;2023-08-31T04:43:40;53.53;51.89;61.62;;
48148;Laerm;29352;48.708;9.290;2023-08-31T04:46:06;53.71;51.96;64.88;;
48148;Laerm;29352;48.708;9.290;2023-08-31T04:48:32;53.47;51.75;63.99;;
48148;Laerm;29352;48.708;9.290;2023-08-31T04:50:58;53.45;51.89;61.89;;
48148;Laerm;29352;48.708;9.290;2023-08-31T04:53:24;53.14;51.82;57.04;;
48148;Laerm;29352;48.708;9.290;2023-08-31T04:55:50;54.16;52.03;65.17;;
48148;Laerm;29352;48.708;9.290;2023-08-31T04:58:15;53.91;52.22;63.83;;
48148;Laerm;29352;48.708;9.290;2023-08-31T05:00:41;53.66;52.03;64.70;;
48148;Laerm;29352;48.708;9.290;2023-08-31T05:03:06;54.25;52.09;64.51;;
48148;Laerm;29352;48.708;9.290;2023-08-31T05:05:32;54.18;52.03;64.83;;
48148;Laerm;29352;48.708;9.290;2023-08-31T05:07:57;53.80;51.96;70.28;;
48148;Laerm;29352;48.708;9.290;2023-08-31T05:10:24;53.89;52.29;63.79;;
48148;Laerm;29352;48.708;9.290;2023-08-31T05:12:49;54.20;52.35;64.17;;
48148;Laerm;29352;48.708;9.290;2023-08-31T05:15:15;53.84;52.22;62.60;;
48148;Laerm;29352;48.708;9.290;2023-08-31T05:17:40;54.73;52.35;66.34;;
48148;Laerm;29352;48.708;9.290;2023-08-31T05:20:06;54.41;52.16;66.99;;
48148;Laerm;29352;48.708;9.290;2023-08-31T05:22:33;53.96;52.29;66.56;;
48148;Laerm;29352;48.708;9.290;2023-08-31T05:25:00;53.86;52.22;68.80;;
48148;Laerm;29352;48.708;9.290;2023-08-31T05:27:26;53.83;52.29;61.77;;
48148;Laerm;29352;48.708;9.290;2023-08-31T05:29:51;53.88;52.35;63.79;;
48148;Laerm;29352;48.708;9.290;2023-08-31T05:32:17;53.87;52.35;63.18;;
48148;Laerm;29352;48.708;9.290;2023-08-31T05:34:42;53.92;52.35;66.68;;
48148;Laerm;29352;48.708;9.290;2023-08-31T05:37:08;53.68;52.29;62.12;;
48148;Laerm;29352;48.708;9.290;2023-08-31T05:39:34;54.61;52.47;66.97;;
48148;Laerm;29352;48.708;9.290;2023-08-31T05:41:59;54.08;52.29;68.57;;
48148;Laerm;29352;48.708;9.290;2023-08-31T05:44:25;54.29;52.53;64.35;;
48148;Laerm;29352;48.708;9.290;2023-08-31T05:46:50;54.22;52.41;65.03;;
48148;Laerm;29352;48.708;9.290;2023-08-31T05:49:16;54.40;52.65;65.26;;
48148;Laerm;29352;48.708;9.290;2023-08-31T05:51:41;54.24;52.29;65.19;;
48148;Laerm;29352;48.708;9.290;2023-08-31T05:54:07;53.95;52.41;62.41;;
48148;Laerm;29352;48.708;9.290;2023-08-31T05:56:39;54.21;52.82;63.89;;
48148;Laerm;29352;48.708;9.290;2023-08-31T05:59:08;54.29;52.65;64.23;;
48148;Laerm;29352;48.708;9.290;2023-08-31T06:01:35;54.48;52.82;62.84;;
48148;Laerm;29352;48.708;9.290;2023-08-31T06:04:01;54.49;52.88;62.49;;
48148;Laerm;29352;48.708;9.290;2023-08-31T06:06:26;54.10;52.88;59.55;;
48148;Laerm;29352;48.708;9.290;2023-08-31T06:08:52;54.19;52.88;60.56;;
48148;Laerm;29352;48.708;9.290;2023-08-31T06:11:18;54.11;52.88;56.73;;
48148;Laerm;29352;48.708;9.290;2023-08-31T06:13:44;54.87;53.14;76.17;;
48148;Laerm;29352;48.708;9.290;2023-08-31T06:16:09;55.94;52.90;76.85;;
48148;Laerm;29352;48.708;9.290;2023-08-31T06:18:35;54.62;52.82;65.30;;
48148;Laerm;29352;48.708;9.290;2023-08-31T06:21:01;55.39;53.09;73.63;;
48148;Laerm;29352;48.708;9.290;2023-08-31T06:23:26;55.97;53.04;76.95;;
48148;Laerm;29352;48.708;9.290;2023-08-31T06:25:52;54.43;53.14;70.32;;
48148;Laerm;29352;48.708;9.290;2023-08-31T06:28:17;54.40;53.09;63.58;;
48148;Laerm;29352;48.708;9.290;2023-08-31T06:30:43;54.22;52.98;57.42;;
48148;Laerm;29352;48.708;9.290;2023-08-31T06:33:15;54.27;52.98;61.73;;
48148;Laerm;29352;48.708;9.290;2023-08-31T06:35:40;54.58;53.14;70.55;;
48148;Laerm;29352;48.708;9.290;2023-08-31T06:38:06;55.32;53.29;79.93;;
48148;Laerm;29352;48.708;9.290;2023-08-31T06:40:32;55.08;53.34;69.96;;
48148;Laerm;29352;48.708;9.290;2023-08-31T06:42:58;54.93;53.39;70.33;;
48148;Laerm;29352;48.708;9.290;2023-08-31T06:45:23;55.11;53.29;68.61;;
48148;Laerm;29352;48.708;9.290;2023-08-31T06:47:49;54.71;53.19;63.77;;
48148;Laerm;29352;48.708;9.290;2023-08-31T06:50:15;54.94;53.44;60.11;;
48148;Laerm;29352;48.708;9.290;2023-08-31T06:52:41;55.34;53.29;63.51;;
48148;Laerm;29352;48.708;9.290;2023-08-31T06:55:08;55.05;53.68;64.80;;
48148;Laerm;29352;48.708;9.290;2023-08-31T06:57:33;54.75;53.24;61.29;;
48148;Laerm;29352;48.708;9.290;2023-08-31T06:59:59;54.67;53.29;71.54;;
48148;Laerm;29352;48.708;9.290;2023-08-31T07:02:26;54.71;53.34;64.18;;
48148;Laerm;29352;48.708;9.290;2023-08-31T07:04:52;54.59;53.24;60.04;;
48148;Laerm;29352;48.708;9.290;2023-08-31T07:07:18;54.60;53.49;59.30;;
48148;Laerm;29352;48.708;9.290;2023-08-31T07:09:46;54.54;52.98;59.10;;
48148;Laerm;29352;48.708;9.290;2023-08-31T07:12:13;54.52;53.34;58.42;;
48148;Laerm;29352;48.708;9.290;2023-08-31T07:14:39;54.53;53.34;58.18;;
48148;Laerm;29352;48.708;9.290;2023-08-31T07:17:04;58.32;53.44;83.94;;
48148;Laerm;29352;48.708;9.290;2023-08-31T07:19:30;54.94;53.63;63.65;;
48148;Laerm;29352;48.708;9.290;2023-08-31T07:21:55;54.78;53.86;55.97;;
48148;Laerm;29352;48.708;9.290;2023-08-31T07:24:22;54.84;53.58;57.55;;
48148;Laerm;29352;48.708;9.290;2023-08-31T07:26:48;54.86;53.63;72.70;;
48148;Laerm;29352;48.708;9.290;2023-08-31T07:29:14;54.75;53.51;55.94;;
48148;Laerm;29352;48.708;9.290;2023-08-31T07:31:39;54.73;53.39;55.89;;
48148;Laerm;29352;48.708;9.290;2023-08-31T07:34:05;54.70;53.58;56.89;;
48148;Laerm;29352;48.708;9.290;2023-08-31T07:36:30;54.72;53.68;56.07;;
48148;Laerm;29352;48.708;9.290;2023-08-31T07:38:56;54.71;53.44;55.75;;
48148;Laerm;29352;48.708;9.290;2023-08-31T07:41:21;54.73;53.68;55.80;;
48148;Laerm;29352;48.708;9.290;2023-08-31T07:43:47;54.77;53.58;58.07;;
48148;Laerm;29352;48.708;9.290;2023-08-31T07:46:14;54.81;53.58;56.78;;
48148;Laerm;29352;48.708;9.290;2023-08-31T07:48:41;54.74;53.49;61.81;;
48148;Laerm;29352;48.708;9.290;2023-08-31T07:51:06;54.76;53.60;62.99;;
48148;Laerm;29352;48.708;9.290;2023-08-31T07:53:32;54.70;53.63;57.72;;
48148;Laerm;29352;48.708;9.290;2023-08-31T07:55:57;54.64;53.58;55.94;;
48148;Laerm;29352;48.708;9.290;2023-08-31T07:58:23;54.63;53.54;55.63;;
48148;Laerm;29352;48.708;9.290;2023-08-31T08:00:53;54.63;53.58;55.75;;
48148;Laerm;29352;48.708;9.290;2023-08-31T08:03:20;54.63;53.54;55.69;;
48148;Laerm;29352;48.708;9.290;2023-08-31T08:05:45;54.58;53.39;55.91;;
48148;Laerm;29352;48.708;9.290;2023-08-31T08:08:11;54.50;53.29;55.42;;
48148;Laerm;29352;48.708;9.290;2023-08-31T08:10:36;54.41;53.34;55.57;;
48148;Laerm;29352;48.708;9.290;2023-08-31T08:13:02;54.41;53.29;55.69;;
48148;Laerm;29352;48.708;9.290;2023-08-31T08:15:28;54.38;53.24;57.40;;
48148;Laerm;29352;48.708;9.290;2023-08-31T08:17:54;54.19;52.93;55.45;;
48148;Laerm;29352;48.708;9.290;2023-08-31T08:20:19;54.06;52.74;55.07;;
48148;Laerm;29352;48.708;9.290;2023-08-31T08:22:45;53.86;52.76;56.07;;
48148;Laerm;29352;48.708;9.290;2023-08-31T08:25:10;53.76;52.58;54.87;;
48148;Laerm;29352;48.708;9.290;2023-08-31T08:27:36;53.74;52.65;54.90;;
48148;Laerm;29352;48.708;9.290;2023-08-31T08:30:03;53.68;52.59;54.69;;
48148;Laerm;29352;48.708;9.290;2023-08-31T08:32:28;53.64;52.09;54.66;;
48148;Laerm;29352;48.708;9.290;2023-08-31T08:34:54;53.59;52.35;54.87;;
48148;Laerm;29352;48.708;9.290;2023-08-31T08:37:19;53.54;52.16;54.69;;
48148;Laerm;29352;48.708;9.290;2023-08-31T08:39:49;53.46;52.41;54.58;;
48148;Laerm;29352;48.708;9.290;2023-08-31T08:42:18;53.37;52.22;54.39;;
48148;Laerm;29352;48.708;9.290;2023-08-31T08:44:44;53.36;52.29;55.30;;
48148;Laerm;29352;48.708;9.290;2023-08-31T08:47:12;53.40;52.16;54.35;;
48148;Laerm;29352;48.708;9.290;2023-08-31T08:49:38;53.37;51.96;54.35;;
48148;Laerm;29352;48.708;9.290;2023-08-31T08:52:05;53.46;52.09;54.43;;
48148;Laerm;29352;48.708;9.290;2023-08-31T08:54:31;53.37;52.16;54.39;;
48148;Laerm;29352;48.708;9.290;2023-08-31T08:56:57;53.48;52.09;54.47;;
48148;Laerm;29352;48.708;9.290;2023-08-31T08:59:24;53.50;52.41;54.43;;
48148;Laerm;29352;48.708;9.290;2023-08-31T09:01:49;53.61;52.41;54.80;;
48148;Laerm;29352;48.708;9.290;2023-08-31T09:04:15;53.75;52.53;54.80;;
48148;Laerm;29352;48.708;9.290;2023-08-31T09:06:41;53.84;52.65;55.77;;
48148;Laerm;29352;48.708;9.290;2023-08-31T09:09:10;53.78;52.65;54.83;;
48148;Laerm;29352;48.708;9.290;2023-08-31T09:11:36;53.82;52.71;54.94;;
48148;Laerm;29352;48.708;9.290;2023-08-31T09:14:15;53.84;52.65;54.80;;
48148;Laerm;29352;48.708;9.290;2023-08-31T09:16:48;53.92;52.88;55.01;;
48148;Laerm;29352;48.708;9.290;2023-08-31T09:19:25;53.95;52.76;55.11;;
48148;Laerm;29352;48.708;9.290;2023-08-31T09:21:55;53.94;52.82;55.01;;
48148;Laerm;29352;48.708;9.290;2023-08-31T09:24:21;53.87;52.82;54.83;;
48148;Laerm;29352;48.708;9.290;2023-08-31T09:26:53;53.83;52.59;54.94;;
48148;Laerm;29352;48.708;9.290;2023-08-31T09:29:19;53.82;52.71;54.83;;
48148;Laerm;29352;48.708;9.290;2023-08-31T09:31:45;53.72;52.65;54.80;;
48148;Laerm;29352;48.708;9.290;2023-08-31T09:34:13;53.55;52.35;54.73;;
48148;Laerm;29352;48.708;9.290;2023-08-31T09:36:39;53.52;52.29;54.54;;
48148;Laerm;29352;48.708;9.290;2023-08-31T09:39:09;53.51;52.29;54.58;;
48148;Laerm;29352;48.708;9.290;2023-08-31T09:41:35;53.61;52.53;54.76;;
48148;Laerm;29352;48.708;9.290;2023-08-31T09:44:19;53.63;52.29;54.97;;
48148;Laerm;29352;48.708;9.290;2023-08-31T09:46:46;53.55;52.35;54.65;;
48148;Laerm;29352;48.708;9.290;2023-08-31T09:49:15;53.32;52.09;54.54;;
48148;Laerm;29352;48.708;9.290;2023-08-31T09:51:46;53.21;52.09;54.23;;
48148;Laerm;29352;48.708;9.290;2023-08-31T09:54:15;53.18;51.89;54.19;;
48148;Laerm;29352;48.708;9.290;2023-08-31T09:56:44;53.27;52.16;54.58;;
48148;Laerm;29352;48.708;9.290;2023-08-31T09:59:13;53.31;52.03;54.43;;
48148;Laerm;29352;48.708;9.290;2023-08-31T10:01:45;53.21;51.89;54.23;;
48148;Laerm;29352;48.708;9.290;2023-08-31T10:04:12;53.17;51.96;54.27;;
48148;Laerm;29352;48.708;9.290;2023-08-31T10:06:42;53.22;52.03;54.19;;
48148;Laerm;29352;48.708;9.290;2023-08-31T10:09:09;53.26;51.89;54.31;;
48148;Laerm;29352;48.708;9.290;2023-08-31T10:11:38;53.25;51.75;54.19;;
48148;Laerm;29352;48.708;9.290;2023-08-31T10:14:05;53.26;52.09;54.31;;
48148;Laerm;29352;48.708;9.290;2023-08-31T10:16:32;53.24;52.03;54.19;;
48148;Laerm;29352;48.708;9.290;2023-08-31T10:18:58;53.14;52.03;54.27;;
48148;Laerm;29352;48.708;9.290;2023-08-31T10:21:24;53.02;51.82;54.15;;
48148;Laerm;29352;48.708;9.290;2023-08-31T10:23:51;52.97;51.53;54.11;;
48148;Laerm;29352;48.708;9.290;2023-08-31T10:26:31;53.00;51.75;54.03;;
48148;Laerm;29352;48.708;9.290;2023-08-31T10:28:59;53.06;51.82;54.07;;
48148;Laerm;29352;48.708;9.290;2023-08-31T10:31:29;53.10;51.96;54.19;;
48148;Laerm;29352;48.708;9.290;2023-08-31T10:33:59;52.94;51.68;55.60;;
48148;Laerm;29352;48.708;9.290;2023-08-31T10:36:38;52.93;51.75;53.94;;
48148;Laerm;29352;48.708;9.290;2023-08-31T10:39:17;52.85;51.61;54.07;;
48148;Laerm;29352;48.708;9.290;2023-08-31T10:41:54;52.79;51.22;53.94;;
48148;Laerm;29352;48.708;9.290;2023-08-31T10:44:25;52.87;51.68;54.03;;
48148;Laerm;29352;48.708;9.290;2023-08-31T10:46:52;52.90;51.68;53.94;;
48148;Laerm;29352;48.708;9.290;2023-08-31T10:49:20;52.94;51.61;54.07;;
48148;Laerm;29352;48.708;9.290;2023-08-31T10:51:55;52.97;51.68;53.99;;
48148;Laerm;29352;48.708;9.290;2023-08-31T10:54:32;52.96;51.61;53.99;;
48148;Laerm;29352;48.708;9.290;2023-08-31T10:57:06;52.83;51.68;53.77;;
48148;Laerm;29352;48.708;9.290;2023-08-31T11:05:17;52.91;51.75;54.11;;
48148;Laerm;29352;48.708;9.290;2023-08-31T11:07:46;52.91;51.75;53.90;;
48148;Laerm;29352;48.708;9.290;2023-08-31T11:10:14;52.92;51.61;53.94;;
48148;Laerm;29352;48.708;9.290;2023-08-31T11:12:42;52.94;51.68;53.94;;
48148;Laerm;29352;48.708;9.290;2023-08-31T11:15:12;52.93;51.75;54.11;;
48148;Laerm;29352;48.708;9.290;2023-08-31T11:17:41;52.95;51.68;53.94;;
48148;Laerm;29352;48.708;9.290;2023-08-31T11:20:08;52.92;51.30;53.99;;
48148;Laerm;29352;48.708;9.290;2023-08-31T11:22:38;52.92;51.61;53.94;;
48148;Laerm;29352;48.708;9.290;2023-08-31T11:25:05;52.94;51.61;53.94;;
48148;Laerm;29352;48.708;9.290;2023-08-31T11:27:30;52.93;51.68;54.03;;
48148;Laerm;29352;48.708;9.290;2023-08-31T11:29:56;52.94;51.61;53.99;;
48148;Laerm;29352;48.708;9.290;2023-08-31T11:32:24;52.97;51.82;54.03;;
48148;Laerm;29352;48.708;9.290;2023-08-31T11:34:50;52.95;51.75;53.94;;
48148;Laerm;29352;48.708;9.290;2023-08-31T11:37:16;52.96;51.82;54.03;;
48148;Laerm;29352;48.708;9.290;2023-08-31T11:39:52;53.03;51.38;54.12;;
48148;Laerm;29352;48.708;9.290;2023-08-31T11:42:21;52.98;51.75;54.07;;
48148;Laerm;29352;48.708;9.290;2023-08-31T11:44:50;52.97;51.61;54.03;;
48148;Laerm;29352;48.708;9.290;2023-08-31T11:47:19;52.96;51.82;54.19;;
48148;Laerm;29352;48.708;9.290;2023-08-31T11:49:46;53.00;51.82;54.03;;
48148;Laerm;29352;48.708;9.290;2023-08-31T11:52:14;53.01;51.68;54.15;;
48148;Laerm;29352;48.708;9.290;2023-08-31T11:54:42;53.00;51.53;54.07;;
48148;Laerm;29352;48.708;9.290;2023-08-31T11:57:10;52.99;51.82;54.19;;
48148;Laerm;29352;48.708;9.290;2023-08-31T11:59:38;52.92;51.22;53.93;;
48148;Laerm;29352;48.708;9.290;2023-08-31T12:02:08;52.93;51.75;53.99;;
48148;Laerm;29352;48.708;9.290;2023-08-31T12:04:43;52.76;51.46;53.94;;
48148;Laerm;29352;48.708;9.290;2023-08-31T12:07:17;52.59;51.06;53.63;;
48148;Laerm;29352;48.708;9.290;2023-08-31T12:09:46;52.64;51.30;53.63;;
48148;Laerm;29352;48.708;9.290;2023-08-31T12:12:20;52.67;51.48;53.77;;
48148;Laerm;29352;48.708;9.290;2023-08-31T12:14:47;52.71;51.22;53.90;;
48148;Laerm;29352;48.708;9.290;2023-08-31T12:17:12;52.66;51.38;53.72;;
48148;Laerm;29352;48.708;9.290;2023-08-31T12:19:39;52.67;51.61;53.72;;
48148;Laerm;29352;48.708;9.290;2023-08-31T12:22:05;52.70;51.38;53.94;;
48148;Laerm;29352;48.708;9.290;2023-08-31T12:24:39;52.69;51.46;53.81;;
48148;Laerm;29352;48.708;9.290;2023-08-31T12:27:07;52.73;51.38;53.90;;
48148;Laerm;29352;48.708;9.290;2023-08-31T12:29:32;52.71;51.30;53.81;;
48148;Laerm;29352;48.708;9.290;2023-08-31T12:31:57;52.70;51.53;53.77;;
48148;Laerm;29352;48.708;9.290;2023-08-31T12:34:23;52.73;51.14;53.90;;
48148;Laerm;29352;48.708;9.290;2023-08-31T12:36:49;52.72;51.38;54.19;;
48148;Laerm;29352;48.708;9.290;2023-08-31T12:39:14;52.68;51.22;53.86;;
48148;Laerm;29352;48.708;9.290;2023-08-31T12:41:40;52.69;51.30;53.90;;
48148;Laerm;29352;48.708;9.290;2023-08-31T12:44:07;52.73;51.38;53.90;;
48148;Laerm;29352;48.708;9.290;2023-08-31T12:46:33;52.75;51.53;53.81;;
48148;Laerm;29352;48.708;9.290;2023-08-31T12:49:01;52.76;51.38;53.77;;
48148;Laerm;29352;48.708;9.290;2023-08-31T12:51:28;52.73;51.38;53.94;;
48148;Laerm;29352;48.708;9.290;2023-08-31T12:53:53;52.78;51.48;53.90;;
48148;Laerm;29352;48.708;9.290;2023-08-31T12:56:19;52.83;51.46;53.81;;
48148;Laerm;29352;48.708;9.290;2023-08-31T12:58:49;52.80;51.53;53.77;;
48148;Laerm;29352;48.708;9.290;2023-08-31T13:01:15;52.74;51.38;53.81;;
48148;Laerm;29352;48.708;9.290;2023-08-31T13:03:41;52.80;51.61;53.90;;
48148;Laerm;29352;48.708;9.290;2023-08-31T13:06:06;52.79;51.30;53.77;;
48148;Laerm;29352;48.708;9.290;2023-08-31T13:08:31;52.81;51.46;53.86;;
48148;Laerm;29352;48.708;9.290;2023-08-31T13:10:57;52.77;51.46;53.90;;
48148;Laerm;29352;48.708;9.290;2023-08-31T13:13:22;52.80;51.30;53.86;;
48148;Laerm;29352;48.708;9.290;2023-08-31T13:15:49;52.83;51.68;53.86;;
48148;Laerm;29352;48.708;9.290;2023-08-31T13:18:15;52.83;51.22;53.90;;
48148;Laerm;29352;48.708;9.290;2023-08-31T13:20:57;52.91;51.68;54.03;;
48148;Laerm;29352;48.708;9.290;2023-08-31T13:23:22;52.89;51.75;53.94;;
48148;Laerm;29352;48.708;9.290;2023-08-31T13:25:49;52.90;51.61;53.94;;
48148;Laerm;29352;48.708;9.290;2023-08-31T13:28:15;52.90;51.46;53.99;;
48148;Laerm;29352;48.708;9.290;2023-08-31T13:30:41;52.92;51.82;53.94;;
48148;Laerm;29352;48.708;9.290;2023-08-31T13:33:08;52.92;51.82;53.94;;
48148;Laerm;29352;48.708;9.290;2023-08-31T13:35:34;52.96;51.68;54.19;;
48148;Laerm;29352;48.708;9.290;2023-08-31T13:38:01;52.99;51.89;53.94;;
48148;Laerm;29352;48.708;9.290;2023-08-31T13:40:29;53.00;51.89;54.07;;
48148;Laerm;29352;48.708;9.290;2023-08-31T13:42:59;53.03;51.75;53.99;;
48148;Laerm;29352;48.708;9.290;2023-08-31T13:45:31;53.11;51.68;54.15;;
48148;Laerm;29352;48.708;9.290;2023-08-31T13:47:58;53.33;52.22;54.35;;
48148;Laerm;29352;48.708;9.290;2023-08-31T13:50:27;53.41;52.29;54.43;;
48148;Laerm;29352;48.708;9.290;2023-08-31T13:52:53;53.32;52.09;54.27;;
48148;Laerm;29352;48.708;9.290;2023-08-31T13:55:19;53.34;52.22;54.35;;